createdAt,value
2022-11-13T00:02:22.937Z,37.72
2022-11-13T00:07:24.648Z,34.78
2022-11-13T00:12:26.451Z,38.97
2022-11-13T00:17:31.180Z,38.38
2022-11-13T00:22:32.895Z,38.17
2022-11-13T00:27:34.641Z,39.40
2022-11-13T00:32:37.883Z,39.00
2022-11-13T00:37:39.751Z,35.40
2022-11-13T00:42:41.386Z,36.92
2022-11-13T00:47:43.098Z,36.72
2022-11-13T00:52:44.784Z,35.85
2022-11-13T00:57:46.532Z,35.03
2022-11-13T01:02:48.185Z,37.25
2022-11-13T01:07:49.890Z,38.85
2022-11-13T01:12:51.586Z,35.13
2022-11-13T01:17:55.041Z,36.35
2022-11-13T01:22:56.721Z,37.33
2022-11-13T01:27:58.588Z,35.75
2022-11-13T01:33:00.268Z,35.20
2022-11-13T01:38:01.970Z,38.65
2022-11-13T01:43:28.702Z,40.45
2022-11-13T01:48:53.142Z,35.63
2022-11-13T01:53:56.198Z,38.80
2022-11-13T01:59:08.677Z,40.13
2022-11-13T02:04:10.578Z,37.45
2022-11-13T02:09:13.911Z,37.15
2022-11-13T02:14:17.817Z,38.47
2022-11-13T02:19:35.795Z,36.75
2022-11-13T02:24:44.973Z,39.40
2022-11-13T02:29:47.171Z,39.42
2022-11-13T02:34:49.010Z,37.67
2022-11-13T02:39:50.812Z,41.28
2022-11-13T02:44:52.487Z,39.92
2022-11-13T02:49:54.211Z,34.45
2022-11-13T02:54:55.887Z,35.92
2022-11-13T02:59:57.584Z,35.38
2022-11-13T03:05:14.760Z,34.40
2022-11-13T03:10:16.640Z,33.30
2022-11-13T03:15:18.325Z,33.70
2022-11-13T03:20:20.134Z,35.42
2022-11-13T03:25:21.859Z,33.60
2022-11-13T03:30:23.521Z,31.83
2022-11-13T03:35:28.651Z,30.60
2022-11-13T03:40:32.537Z,28.75
2022-11-13T03:45:34.614Z,29.25
2022-11-13T03:50:37.636Z,26.73
2022-11-13T03:55:43.509Z,28.55
2022-11-13T04:00:46.254Z,25.10
2022-11-13T04:05:49.662Z,24.67
2022-11-13T04:10:51.390Z,24.52
2022-11-13T04:15:53.077Z,21.30
2022-11-13T04:21:00.399Z,20.63
2022-11-13T04:26:02.090Z,21.40
2022-11-13T04:31:03.844Z,20.85
2022-11-13T04:36:05.806Z,22.98
2022-11-13T04:41:26.566Z,20.38
2022-11-13T04:46:28.236Z,19.42
2022-11-13T04:51:30.805Z,19.48
2022-11-13T04:56:32.579Z,21.27
2022-11-13T05:01:36.132Z,20.80
2022-11-13T05:06:37.865Z,23.20
2022-11-13T05:11:39.592Z,19.73
2022-11-13T05:16:41.297Z,21.23
2022-11-13T05:21:43.261Z,19.75
2022-11-13T05:26:44.958Z,19.70
2022-11-13T05:31:47.367Z,18.77
2022-11-13T05:36:48.992Z,18.65
2022-11-13T05:41:50.669Z,19.20
2022-11-13T05:46:52.431Z,19.95
2022-11-13T05:51:55.068Z,18.02
2022-11-13T05:56:56.727Z,15.05
2022-11-13T06:01:58.477Z,16.27
2022-11-13T06:07:00.263Z,16.83
2022-11-13T06:12:02.031Z,16.48
2022-11-13T06:17:03.783Z,17.60
2022-11-13T06:22:05.452Z,17.30
2022-11-13T06:27:07.173Z,16.58
2022-11-13T06:32:08.880Z,16.95
2022-11-13T06:37:10.544Z,20.77
2022-11-13T06:42:12.223Z,20.08
2022-11-13T06:47:13.878Z,17.80
2022-11-13T06:52:15.536Z,16.27
2022-11-13T06:57:17.221Z,17.85
2022-11-13T07:02:18.918Z,19.20
2022-11-13T07:07:20.658Z,18.83
2022-11-13T07:12:22.399Z,18.25
2022-11-13T07:17:24.075Z,17.85
2022-11-13T07:22:25.782Z,16.33
2022-11-13T07:27:27.469Z,18.50
2022-11-13T07:32:29.107Z,17.48
2022-11-13T07:37:30.790Z,20.30
2022-11-13T07:42:32.803Z,18.25
2022-11-13T07:47:34.528Z,19.00
2022-11-13T07:52:36.238Z,18.42
2022-11-13T07:57:37.908Z,19.45
2022-11-13T08:02:39.660Z,20.77
2022-11-13T08:07:41.376Z,18.45
2022-11-13T08:12:43.830Z,17.98
2022-11-13T08:17:54.112Z,17.38
2022-11-13T08:23:00.699Z,16.40
2022-11-13T08:28:02.440Z,19.45
2022-11-13T08:33:04.592Z,18.88
2022-11-13T08:38:08.270Z,20.15
2022-11-13T08:43:09.940Z,21.58
2022-11-13T08:48:11.644Z,21.75
2022-11-13T08:53:13.322Z,22.83
2022-11-13T08:58:15.175Z,23.75
2022-11-13T09:03:16.841Z,26.17
2022-11-13T09:08:18.579Z,28.45
2022-11-13T09:13:20.220Z,28.23
2022-11-13T09:18:21.974Z,27.70
2022-11-13T09:23:23.710Z,25.02
2022-11-13T09:28:25.516Z,25.75
2022-11-13T09:33:27.328Z,25.70
2022-11-13T09:38:31.993Z,26.75
2022-11-13T09:43:56.742Z,26.15
2022-11-13T09:49:07.738Z,24.52
2022-11-13T09:54:14.350Z,25.80
2022-11-13T09:59:37.207Z,23.75
2022-11-13T10:05:21.292Z,23.95
2022-11-13T10:10:41.696Z,23.38
2022-11-13T10:15:46.223Z,23.67
2022-11-13T10:20:51.375Z,21.75
2022-11-13T10:25:58.384Z,27.23
2022-11-13T10:31:00.124Z,23.90
2022-11-13T10:36:01.744Z,26.67
2022-11-13T10:41:15.413Z,23.75
2022-11-13T10:46:22.677Z,24.92
2022-11-13T10:51:35.289Z,22.15
2022-11-13T10:56:37.270Z,20.17
2022-11-13T11:01:40.355Z,22.55
2022-11-13T11:07:17.895Z,20.40
2022-11-13T11:12:23.108Z,19.42
2022-11-13T11:17:46.201Z,20.25
2022-11-13T11:22:57.692Z,22.67
2022-11-13T11:28:11.487Z,21.15
2022-11-13T11:33:25.819Z,22.20
2022-11-13T11:38:35.935Z,21.73
2022-11-13T11:43:43.481Z,24.52
2022-11-13T11:48:45.195Z,24.67
2022-11-13T11:54:04.932Z,28.35
2022-11-13T11:59:33.984Z,24.42
2022-11-13T12:04:53.924Z,25.35
2022-11-13T12:10:22.659Z,30.00
2022-11-13T12:15:35.073Z,26.98
2022-11-13T12:20:47.166Z,27.48
2022-11-13T12:26:01.330Z,28.42
2022-11-13T12:31:38.988Z,25.63
2022-11-13T12:36:41.099Z,29.00
2022-11-13T12:42:11.953Z,33.78
2022-11-13T12:47:14.154Z,25.77
2022-11-13T12:52:15.757Z,26.95
2022-11-13T12:57:28.630Z,27.52
2022-11-13T13:02:37.865Z,27.85
2022-11-13T13:07:45.363Z,28.60
2022-11-13T13:13:02.180Z,27.42
2022-11-13T13:18:03.881Z,26.15
2022-11-13T13:23:08.704Z,28.13
2022-11-13T13:28:10.678Z,29.83
2022-11-13T13:33:48.572Z,27.67
2022-11-13T13:39:05.738Z,27.88
2022-11-13T13:44:26.102Z,26.33
2022-11-13T13:49:30.939Z,27.90
2022-11-13T13:54:34.179Z,30.98
2022-11-13T13:59:37.489Z,27.15
2022-11-13T14:04:47.784Z,26.40
2022-11-13T14:09:49.876Z,26.05
2022-11-13T14:14:51.523Z,25.83
2022-11-13T14:19:54.896Z,23.42
2022-11-13T14:25:00.304Z,26.92
2022-11-13T14:30:03.083Z,24.98
2022-11-13T14:35:05.975Z,24.52
2022-11-13T14:40:26.404Z,23.60
2022-11-13T14:45:31.071Z,26.70
2022-11-13T14:50:35.933Z,25.38
2022-11-13T14:55:51.632Z,27.52
2022-11-13T15:00:53.449Z,23.55
2022-11-13T15:05:55.266Z,24.40
2022-11-13T15:10:57.467Z,25.83
2022-11-13T15:15:59.314Z,25.85
2022-11-13T15:21:00.991Z,24.90
2022-11-13T15:26:03.487Z,24.17
2022-11-13T15:31:30.044Z,27.10
2022-11-13T15:36:31.931Z,28.88
2022-11-13T15:41:34.607Z,25.85
2022-11-13T15:46:36.329Z,26.52
2022-11-13T15:51:41.872Z,29.95
2022-11-13T15:56:44.389Z,31.70
2022-11-13T16:01:47.272Z,29.40
2022-11-13T16:06:49.037Z,32.08
2022-11-13T16:11:50.756Z,27.42
2022-11-13T16:16:53.241Z,37.15
2022-11-13T16:21:55.284Z,27.75
2022-11-13T16:26:58.357Z,28.60
2022-11-13T16:32:00.034Z,27.50
2022-11-13T16:37:02.069Z,30.52
2022-11-13T16:42:03.891Z,29.35
2022-11-13T16:47:06.943Z,30.38
2022-11-13T16:52:08.667Z,26.77
2022-11-13T16:57:12.260Z,28.48
2022-11-13T17:02:16.585Z,28.95
2022-11-13T17:07:18.598Z,29.02
2022-11-13T17:12:22.886Z,30.83
2022-11-13T17:17:24.656Z,28.00
2022-11-13T17:22:26.353Z,31.38
2022-11-13T17:27:28.220Z,28.23
2022-11-13T17:32:30.571Z,29.33
2022-11-13T17:37:32.256Z,29.20
2022-11-13T17:42:33.944Z,29.02
2022-11-13T17:47:35.613Z,29.40
2022-11-13T17:52:37.315Z,33.63
2022-11-13T17:57:38.970Z,29.83
2022-11-13T18:02:40.665Z,32.75
2022-11-13T18:07:42.402Z,31.70
2022-11-13T18:12:44.163Z,32.38
2022-11-13T18:17:51.969Z,35.85
2022-11-13T18:22:54.200Z,34.35
2022-11-13T18:27:56.027Z,36.75
2022-11-13T18:32:57.738Z,29.30
2022-11-13T18:37:59.421Z,33.45
2022-11-13T18:43:01.093Z,32.75
2022-11-13T18:48:02.751Z,38.53
2022-11-13T18:53:04.472Z,37.05
2022-11-13T18:58:06.204Z,39.20
2022-11-13T19:03:07.931Z,40.13
2022-11-13T19:08:09.603Z,36.60
2022-11-13T19:13:11.383Z,37.85
2022-11-13T19:18:13.180Z,36.70
2022-11-13T19:23:14.849Z,36.08
2022-11-13T19:28:17.286Z,35.20
2022-11-13T19:33:18.956Z,41.90
2022-11-13T19:38:21.525Z,38.95
2022-11-13T19:43:23.253Z,39.40
2022-11-13T19:48:25.164Z,37.60
2022-11-13T19:53:26.896Z,42.45
2022-11-13T19:58:29.450Z,39.85
2022-11-13T20:03:31.669Z,38.45
2022-11-13T20:08:35.172Z,38.80
2022-11-13T20:13:38.849Z,44.67
2022-11-13T20:18:41.760Z,43.38
2022-11-13T20:23:43.418Z,41.22
2022-11-13T20:28:45.136Z,42.90
2022-11-13T20:33:47.658Z,38.35
2022-11-13T20:38:51.302Z,43.75
2022-11-13T20:43:56.186Z,44.28
2022-11-13T20:48:58.332Z,40.08
2022-11-13T20:54:00.443Z,39.85
2022-11-13T20:59:04.015Z,42.13
2022-11-13T21:04:05.811Z,48.08
2022-11-13T21:09:07.564Z,50.35
2022-11-13T21:14:10.753Z,45.22
2022-11-13T21:19:12.525Z,45.28
2022-11-13T21:24:14.198Z,46.70
2022-11-13T21:29:15.843Z,51.97
2022-11-13T21:34:17.485Z,49.28
2022-11-13T21:39:19.151Z,49.58
2022-11-13T21:44:20.900Z,48.53
2022-11-13T21:49:22.905Z,49.03
2022-11-13T21:54:24.568Z,48.10
2022-11-13T21:59:26.267Z,44.63
2022-11-13T22:04:27.972Z,51.15
2022-11-13T22:09:29.617Z,45.45
2022-11-13T22:14:31.349Z,49.25
2022-11-13T22:19:36.239Z,47.88
2022-11-13T22:24:38.227Z,48.92
2022-11-13T22:29:39.941Z,48.92
2022-11-13T22:34:41.714Z,49.28
2022-11-13T22:39:43.518Z,45.55
2022-11-13T22:44:55.462Z,48.50
2022-11-13T22:49:59.087Z,47.65
2022-11-13T22:55:01.125Z,44.38
2022-11-13T23:00:09.309Z,41.13
2022-11-13T23:05:11.228Z,43.03
2022-11-13T23:10:13.274Z,40.33
2022-11-13T23:15:15.150Z,43.97
2022-11-13T23:20:17.051Z,48.95
2022-11-13T23:25:18.833Z,45.53
2022-11-13T23:30:20.535Z,48.50
2022-11-13T23:35:22.326Z,54.50
2022-11-13T23:40:24.156Z,49.72
2022-11-13T23:45:26.064Z,57.28
2022-11-13T23:50:28.307Z,54.30
2022-11-13T23:55:30.134Z,57.20
